createdAt,value
2023-03-06T00:00:09.713Z,1201.00
2023-03-06T00:01:09.756Z,1175.00
2023-03-06T00:02:09.768Z,1186.00
2023-03-06T00:03:09.820Z,1204.00
2023-03-06T00:04:09.896Z,1189.00
2023-03-06T00:05:09.869Z,1157.00
2023-03-06T00:06:09.980Z,1183.00
2023-03-06T00:07:09.888Z,1192.00
2023-03-06T00:08:09.929Z,1176.00
2023-03-06T00:09:09.974Z,1179.00
2023-03-06T00:10:10.023Z,1188.00
2023-03-06T00:11:10.063Z,1183.00
2023-03-06T00:12:10.063Z,1166.00
2023-03-06T00:13:10.081Z,1173.00
2023-03-06T00:14:10.127Z,1136.00
2023-03-06T00:15:10.152Z,1176.00
2023-03-06T00:16:10.168Z,1162.00
2023-03-06T00:17:10.174Z,1152.00
2023-03-06T00:18:10.204Z,1139.00
2023-03-06T00:19:10.226Z,1150.00
2023-03-06T00:20:10.257Z,1163.00
2023-03-06T00:21:10.261Z,1149.00
2023-03-06T00:22:10.330Z,1147.00
2023-03-06T00:23:10.346Z,1169.00
2023-03-06T00:24:10.383Z,1156.00
2023-03-06T00:25:10.433Z,1166.00
2023-03-06T00:26:10.462Z,1173.00
2023-03-06T00:27:10.541Z,1172.00
2023-03-06T00:28:10.589Z,1162.00
2023-03-06T00:29:10.616Z,1141.00
2023-03-06T00:30:10.675Z,1145.00
2023-03-06T00:31:10.742Z,1156.00
2023-03-06T00:32:10.774Z,1173.00
2023-03-06T00:33:10.787Z,1171.00
2023-03-06T00:34:10.827Z,1178.00
2023-03-06T00:35:10.825Z,1146.00
2023-03-06T00:36:10.872Z,1163.00
2023-03-06T00:37:10.920Z,1156.00
2023-03-06T00:38:10.901Z,1170.00
2023-03-06T00:39:10.908Z,1168.00
2023-03-06T00:40:10.971Z,1167.00
2023-03-06T00:41:10.927Z,1162.00
2023-03-06T00:42:11.649Z,1177.00
2023-03-06T00:43:10.986Z,1162.00
2023-03-06T00:44:11.005Z,1148.00
2023-03-06T00:45:11.045Z,1158.00
2023-03-06T00:46:11.137Z,1160.00
2023-03-06T00:47:11.103Z,1159.00
2023-03-06T00:48:11.111Z,1172.00
2023-03-06T00:49:11.085Z,1186.00
2023-03-06T00:50:11.150Z,1207.00
2023-03-06T00:51:13.862Z,1190.00
2023-03-06T00:52:11.097Z,1206.00
2023-03-06T00:53:11.102Z,1192.00
2023-03-06T00:54:11.078Z,1186.00
2023-03-06T00:55:11.116Z,1177.00
2023-03-06T00:56:11.042Z,1155.00
2023-03-06T00:57:11.058Z,1175.00
2023-03-06T00:58:11.044Z,1161.00
2023-03-06T00:59:11.025Z,1169.00
2023-03-06T01:00:11.018Z,1173.00
2023-03-06T01:01:11.058Z,1178.00
2023-03-06T01:02:11.103Z,1186.00
2023-03-06T01:03:11.013Z,1168.00
2023-03-06T01:04:10.985Z,1173.00
2023-03-06T01:05:10.956Z,1192.00
2023-03-06T01:06:10.951Z,1216.00
2023-03-06T01:07:10.931Z,1179.00
2023-03-06T01:08:10.951Z,1185.00
2023-03-06T01:09:10.929Z,1183.00
2023-03-06T01:10:10.928Z,1178.00
2023-03-06T01:11:10.930Z,1203.00
2023-03-06T01:12:10.897Z,1182.00
2023-03-06T01:13:10.907Z,1173.00
2023-03-06T01:14:10.875Z,1188.00
2023-03-06T01:15:10.892Z,1190.00
2023-03-06T01:16:10.912Z,1208.00
2023-03-06T01:17:10.889Z,1193.00
2023-03-06T01:18:10.869Z,1179.00
2023-03-06T01:19:10.922Z,1163.00
2023-03-06T01:20:10.855Z,1183.00
2023-03-06T01:21:10.848Z,1187.00
2023-03-06T01:22:10.795Z,1167.00
2023-03-06T01:23:10.804Z,1162.00
2023-03-06T01:24:10.799Z,1157.00
2023-03-06T01:25:10.793Z,1172.00
2023-03-06T01:26:10.766Z,1180.00
2023-03-06T01:27:10.777Z,1165.00
2023-03-06T01:28:10.766Z,1170.00
2023-03-06T01:29:10.752Z,1165.00
2023-03-06T01:30:10.722Z,1161.00
2023-03-06T01:31:10.728Z,1169.00
2023-03-06T01:32:10.737Z,1151.00
2023-03-06T01:33:10.700Z,1143.00
2023-03-06T01:34:10.711Z,1135.00
2023-03-06T01:35:10.716Z,1146.00
2023-03-06T01:36:10.658Z,1142.00
2023-03-06T01:37:10.666Z,1115.00
2023-03-06T01:38:10.661Z,1128.00
2023-03-06T01:39:10.666Z,1113.00
2023-03-06T01:40:10.631Z,1125.00
2023-03-06T01:41:10.656Z,1135.00
2023-03-06T01:42:10.664Z,1134.00
2023-03-06T01:43:10.654Z,1143.00
2023-03-06T01:44:10.629Z,1140.00
2023-03-06T01:45:10.620Z,1126.00
2023-03-06T01:46:10.712Z,1121.00
2023-03-06T01:47:10.595Z,1097.00
2023-03-06T01:48:10.617Z,1113.00
2023-03-06T01:49:10.568Z,1132.00
2023-03-06T01:50:10.588Z,1110.00
2023-03-06T01:51:10.553Z,1113.00
2023-03-06T01:52:10.553Z,1116.00
2023-03-06T01:53:10.577Z,1098.00
2023-03-06T01:54:10.623Z,1108.00
2023-03-06T01:55:10.625Z,1108.00
2023-03-06T01:56:10.674Z,1088.00
2023-03-06T01:57:10.699Z,1091.00
2023-03-06T01:58:10.666Z,1083.00
2023-03-06T01:59:10.716Z,1090.00
2023-03-06T02:00:10.747Z,1091.00
2023-03-06T02:01:10.786Z,1095.00
2023-03-06T02:02:10.831Z,1111.00
2023-03-06T02:03:10.799Z,1097.00
2023-03-06T02:04:10.822Z,1090.00
2023-03-06T02:05:10.823Z,1113.00
2023-03-06T02:06:10.820Z,1092.00
2023-03-06T02:07:10.867Z,1126.00
2023-03-06T02:08:10.899Z,1164.00
2023-03-06T02:09:10.972Z,1185.00
2023-03-06T02:10:11.003Z,1207.00
2023-03-06T02:11:11.070Z,1187.00
2023-03-06T02:12:11.092Z,1199.00
2023-03-06T02:13:11.114Z,1193.00
2023-03-06T02:14:11.170Z,1197.00
2023-03-06T02:15:11.676Z,1188.00
2023-03-06T02:16:11.234Z,1202.00
2023-03-06T02:17:11.270Z,1182.00
2023-03-06T02:18:11.294Z,1192.00
2023-03-06T02:19:11.348Z,1188.00
2023-03-06T02:20:11.414Z,1187.00
2023-03-06T02:21:11.475Z,1185.00
2023-03-06T02:22:11.493Z,1189.00
2023-03-06T02:23:11.510Z,1190.00
2023-03-06T02:24:11.546Z,1197.00
2023-03-06T02:25:11.616Z,1206.00
2023-03-06T02:26:11.625Z,1220.00
2023-03-06T02:27:12.199Z,1205.00
2023-03-06T02:28:11.675Z,1212.00
2023-03-06T02:29:11.735Z,1209.00
2023-03-06T02:30:11.749Z,1208.00
2023-03-06T02:31:11.813Z,1218.00
2023-03-06T02:32:11.845Z,1203.00
2023-03-06T02:33:11.828Z,1221.00
2023-03-06T02:34:11.843Z,1203.00
2023-03-06T02:35:11.899Z,1222.00
2023-03-06T02:36:11.907Z,1221.00
2023-03-06T02:37:11.939Z,1230.00
2023-03-06T02:38:11.959Z,1210.00
2023-03-06T02:39:11.978Z,1219.00
2023-03-06T02:40:12.015Z,1234.00
2023-03-06T02:41:12.044Z,1216.00
2023-03-06T02:42:12.046Z,1221.00
2023-03-06T02:43:12.057Z,1220.00
2023-03-06T02:44:12.092Z,1202.00
2023-03-06T02:45:12.134Z,1198.00
2023-03-06T02:46:12.333Z,1218.00
2023-03-06T02:47:12.188Z,1230.00
2023-03-06T02:48:12.212Z,1216.00
2023-03-06T02:49:12.209Z,1213.00
2023-03-06T02:50:12.223Z,1227.00
2023-03-06T02:51:12.281Z,1212.00
2023-03-06T02:52:12.249Z,1214.00
2023-03-06T02:53:12.282Z,1212.00
2023-03-06T02:54:12.328Z,1196.00
2023-03-06T02:55:12.359Z,1199.00
2023-03-06T02:56:12.338Z,1206.00
2023-03-06T02:57:12.416Z,1211.00
2023-03-06T02:58:12.413Z,1207.00
2023-03-06T02:59:12.410Z,1174.00
2023-03-06T03:00:12.430Z,1187.00
2023-03-06T03:01:12.497Z,1191.00
2023-03-06T03:02:12.466Z,1209.00
2023-03-06T03:03:12.487Z,1198.00
2023-03-06T03:04:12.536Z,1203.00
2023-03-06T03:05:12.537Z,1193.00
2023-03-06T03:06:12.582Z,1186.00
2023-03-06T03:07:12.572Z,1198.00
2023-03-06T03:08:12.586Z,1192.00
2023-03-06T03:09:12.597Z,1201.00
2023-03-06T03:10:12.612Z,1198.00
2023-03-06T03:11:12.619Z,1189.00
2023-03-06T03:12:12.637Z,1186.00
2023-03-06T03:13:12.656Z,1186.00
2023-03-06T03:14:12.738Z,1185.00
2023-03-06T03:15:12.668Z,1195.00
2023-03-06T03:16:12.703Z,1214.00
2023-03-06T03:17:12.690Z,1204.00
2023-03-06T03:18:12.680Z,1204.00
2023-03-06T03:19:12.742Z,1211.00
2023-03-06T03:20:12.746Z,1227.00
2023-03-06T03:21:12.778Z,1235.00
2023-03-06T03:22:12.788Z,1229.00
2023-03-06T03:23:12.786Z,1229.00
2023-03-06T03:24:12.807Z,1250.00
2023-03-06T03:25:12.823Z,1235.00
2023-03-06T03:26:12.840Z,1231.00
2023-03-06T03:27:12.861Z,1240.00
2023-03-06T03:28:12.857Z,1258.00
2023-03-06T03:29:12.880Z,1237.00
2023-03-06T03:30:12.893Z,1241.00
2023-03-06T03:31:12.953Z,1261.00
2023-03-06T03:32:12.939Z,1255.00
2023-03-06T03:33:12.964Z,1260.00
2023-03-06T03:34:12.964Z,1263.00
2023-03-06T03:35:12.991Z,1271.00
2023-03-06T03:36:12.988Z,1276.00
2023-03-06T03:37:13.012Z,1271.00
2023-03-06T03:38:13.006Z,1284.00
2023-03-06T03:39:13.001Z,1268.00
2023-03-06T03:40:13.054Z,1275.00
2023-03-06T03:41:13.084Z,1276.00
2023-03-06T03:42:13.051Z,1289.00
2023-03-06T03:43:13.028Z,1276.00
2023-03-06T03:44:13.083Z,1294.00
2023-03-06T03:45:13.086Z,1278.00
2023-03-06T03:46:13.090Z,1283.00
2023-03-06T03:47:13.080Z,1276.00
2023-03-06T03:48:13.071Z,1277.00
2023-03-06T03:49:13.092Z,1276.00
2023-03-06T03:50:13.102Z,1283.00
2023-03-06T03:51:13.071Z,1278.00
2023-03-06T03:52:13.093Z,1272.00
2023-03-06T03:53:13.112Z,1273.00
2023-03-06T03:54:13.153Z,1274.00
2023-03-06T03:55:13.120Z,1267.00
2023-03-06T03:56:13.141Z,1273.00
2023-03-06T03:57:13.146Z,1272.00
2023-03-06T03:58:13.152Z,1260.00
2023-03-06T03:59:13.171Z,1272.00
2023-03-06T04:00:13.181Z,1260.00
2023-03-06T04:01:13.168Z,1277.00
2023-03-06T04:02:13.222Z,1264.00
2023-03-06T04:03:13.201Z,1268.00
2023-03-06T04:04:13.207Z,1255.00
2023-03-06T04:05:13.247Z,1258.00
2023-03-06T04:06:13.183Z,1238.00
2023-03-06T04:07:13.210Z,1263.00
2023-03-06T04:08:13.206Z,1246.00
2023-03-06T04:09:13.211Z,1251.00
2023-03-06T04:10:13.217Z,1254.00
2023-03-06T04:11:13.211Z,1264.00
2023-03-06T04:12:13.244Z,1260.00
2023-03-06T04:13:13.239Z,1257.00
2023-03-06T04:14:13.227Z,1255.00
2023-03-06T04:15:13.242Z,1263.00
2023-03-06T04:16:13.301Z,1251.00
2023-03-06T04:17:13.248Z,1263.00
2023-03-06T04:18:13.229Z,1266.00
2023-03-06T04:19:13.236Z,1283.00
2023-03-06T04:20:13.224Z,1273.00
2023-03-06T04:21:13.227Z,1253.00
2023-03-06T04:22:13.248Z,1246.00
2023-03-06T04:23:13.227Z,1245.00
2023-03-06T04:24:13.245Z,1257.00
2023-03-06T04:25:13.236Z,1262.00
2023-03-06T04:26:13.227Z,1255.00
2023-03-06T04:27:13.220Z,1255.00
2023-03-06T04:28:13.222Z,1249.00
2023-03-06T04:29:13.254Z,1246.00
2023-03-06T04:30:13.234Z,1252.00
2023-03-06T04:31:13.293Z,1236.00
2023-03-06T04:32:13.306Z,1247.00
2023-03-06T04:33:13.254Z,1232.00
2023-03-06T04:34:13.289Z,1235.00
2023-03-06T04:35:13.273Z,1240.00
2023-03-06T04:36:13.257Z,1242.00
2023-03-06T04:37:13.260Z,1255.00
2023-03-06T04:38:13.277Z,1243.00
2023-03-06T04:39:13.290Z,1233.00
2023-03-06T04:40:13.288Z,1225.00
2023-03-06T04:41:13.288Z,1237.00
2023-03-06T04:42:13.329Z,1223.00
2023-03-06T04:43:13.315Z,1234.00
2023-03-06T04:44:13.318Z,1229.00
2023-03-06T04:45:13.288Z,1220.00
2023-03-06T04:46:13.332Z,1213.00
2023-03-06T04:47:13.313Z,1218.00
2023-03-06T04:48:13.294Z,1192.00
2023-03-06T04:49:13.325Z,1183.00
2023-03-06T04:50:13.336Z,1201.00
2023-03-06T04:51:13.348Z,1209.00
2023-03-06T04:52:13.362Z,1200.00
2023-03-06T04:53:13.317Z,1202.00
2023-03-06T04:54:13.333Z,1204.00
2023-03-06T04:55:13.357Z,1209.00
2023-03-06T04:56:13.336Z,1196.00
2023-03-06T04:57:13.359Z,1202.00
2023-03-06T04:58:13.360Z,1206.00
2023-03-06T04:59:13.386Z,1198.00
2023-03-06T05:00:13.397Z,1195.00
2023-03-06T05:01:13.427Z,1202.00
2023-03-06T05:02:13.394Z,1225.00
2023-03-06T05:03:13.390Z,1200.00
2023-03-06T05:04:13.378Z,1202.00
2023-03-06T05:05:13.342Z,1212.00
2023-03-06T05:06:13.357Z,1197.00
2023-03-06T05:07:13.344Z,1201.00
2023-03-06T05:08:13.338Z,1207.00
2023-03-06T05:09:13.354Z,1196.00
2023-03-06T05:10:13.364Z,1201.00
2023-03-06T05:11:13.351Z,1198.00
2023-03-06T05:12:13.332Z,1198.00
2023-03-06T05:13:13.376Z,1204.00
2023-03-06T05:14:13.377Z,1195.00
2023-03-06T05:15:13.338Z,1202.00
2023-03-06T05:16:13.390Z,1200.00
2023-03-06T05:17:13.357Z,1205.00
2023-03-06T05:18:13.371Z,1186.00
2023-03-06T05:19:13.371Z,1199.00
2023-03-06T05:20:13.343Z,1203.00
2023-03-06T05:21:13.344Z,1185.00
2023-03-06T05:22:13.358Z,1186.00
2023-03-06T05:23:13.393Z,1197.00
2023-03-06T05:24:13.351Z,1200.00
2023-03-06T05:25:13.369Z,1182.00
2023-03-06T05:26:13.328Z,1182.00
2023-03-06T05:27:15.205Z,1186.00
2023-03-06T05:28:13.344Z,1204.00
2023-03-06T05:29:13.326Z,1204.00
2023-03-06T05:30:13.305Z,1196.00
2023-03-06T05:31:13.295Z,1195.00
2023-03-06T05:32:13.412Z,1182.00
2023-03-06T05:33:13.261Z,1192.00
2023-03-06T05:34:13.224Z,1191.00
2023-03-06T05:35:13.470Z,1202.00
2023-03-06T05:36:13.170Z,1191.00
2023-03-06T05:37:13.170Z,1184.00
2023-03-06T05:38:13.140Z,1193.00
2023-03-06T05:39:13.146Z,1191.00
2023-03-06T05:40:13.099Z,1179.00
2023-03-06T05:41:13.086Z,1172.00
2023-03-06T05:42:13.050Z,1186.00
2023-03-06T05:43:13.048Z,1191.00
2023-03-06T05:44:12.993Z,1195.00
2023-03-06T05:45:12.985Z,1199.00
2023-03-06T05:46:13.039Z,1171.00
2023-03-06T05:47:12.941Z,1175.00
2023-03-06T05:48:12.931Z,1201.00
2023-03-06T05:49:12.914Z,1176.00
2023-03-06T05:50:12.862Z,1197.00
2023-03-06T05:51:12.848Z,1176.00
2023-03-06T05:52:12.809Z,1183.00
2023-03-06T05:53:12.806Z,1197.00
2023-03-06T05:54:12.746Z,1193.00
2023-03-06T05:55:12.742Z,1176.00
2023-03-06T05:56:12.715Z,1181.00
2023-03-06T05:57:12.735Z,1196.00
2023-03-06T05:58:12.630Z,1191.00
2023-03-06T05:59:12.641Z,1184.00
2023-03-06T06:00:12.598Z,1212.00
2023-03-06T06:01:19.774Z,1184.00
2023-03-06T06:02:12.606Z,1186.00
2023-03-06T06:03:12.611Z,1188.00
2023-03-06T06:04:12.544Z,1190.00
2023-03-06T06:05:13.169Z,1187.00
2023-03-06T06:06:12.501Z,1197.00
2023-03-06T06:07:12.471Z,1182.00
2023-03-06T06:08:12.422Z,1209.00
2023-03-06T06:09:13.966Z,1202.00
2023-03-06T06:10:12.477Z,1203.00
2023-03-06T06:11:12.466Z,1189.00
2023-03-06T06:12:12.442Z,1187.00
2023-03-06T06:13:12.424Z,1193.00
2023-03-06T06:14:12.343Z,1204.00
2023-03-06T06:15:12.308Z,1195.00
2023-03-06T06:16:12.387Z,1196.00
2023-03-06T06:17:12.266Z,1210.00
2023-03-06T06:18:12.258Z,1207.00
2023-03-06T06:19:12.214Z,1197.00
2023-03-06T06:20:12.228Z,1192.00
2023-03-06T06:21:12.231Z,1204.00
2023-03-06T06:22:12.198Z,1182.00
2023-03-06T06:23:12.139Z,1202.00
2023-03-06T06:24:12.124Z,1188.00
2023-03-06T06:25:12.101Z,1198.00
2023-03-06T06:26:12.119Z,1197.00
2023-03-06T06:27:12.079Z,1196.00
2023-03-06T06:28:12.079Z,1209.00
2023-03-06T06:29:12.040Z,1202.00
2023-03-06T06:30:12.803Z,1204.00
2023-03-06T06:31:12.304Z,1196.00
2023-03-06T06:32:12.045Z,1212.00
2023-03-06T06:33:12.013Z,1308.00
2023-03-06T06:34:11.967Z,1438.00
2023-03-06T06:35:11.938Z,1608.00
2023-03-06T06:36:12.331Z,1637.00
2023-03-06T06:37:11.937Z,1573.00
2023-03-06T06:38:12.062Z,1575.00
2023-03-06T06:39:11.892Z,1536.00
2023-03-06T06:40:11.896Z,1497.00
2023-03-06T06:41:38.937Z,1444.00
2023-03-06T06:42:30.493Z,1438.00
2023-03-06T06:43:12.841Z,1437.00
2023-03-06T06:44:11.859Z,1391.00
2023-03-06T06:45:11.862Z,1403.00
2023-03-06T06:46:53.384Z,1423.00
2023-03-06T06:47:28.148Z,1448.00
2023-03-06T06:48:12.898Z,1449.00
2023-03-06T06:49:11.862Z,1465.00
2023-03-06T06:50:11.864Z,1495.00
2023-03-06T06:51:11.785Z,1522.00
2023-03-06T06:52:11.884Z,1586.00
2023-03-06T06:53:11.753Z,1587.00
2023-03-06T06:54:11.735Z,1590.00
2023-03-06T06:55:11.718Z,1607.00
2023-03-06T06:56:11.673Z,1641.00
2023-03-06T06:57:11.830Z,1632.00
2023-03-06T06:58:11.679Z,1632.00
2023-03-06T06:59:17.152Z,1677.00
2023-03-06T07:00:12.613Z,1679.00
2023-03-06T07:01:11.625Z,1684.00
2023-03-06T07:02:11.562Z,1704.00
2023-03-06T07:03:11.535Z,1724.00
2023-03-06T07:04:11.563Z,1785.00
2023-03-06T07:05:11.516Z,1832.00
2023-03-06T07:06:11.502Z,1841.00
2023-03-06T07:07:11.477Z,1859.00
2023-03-06T07:08:11.445Z,1885.00
2023-03-06T07:09:11.435Z,1922.00
2023-03-06T07:10:11.417Z,1943.00
2023-03-06T07:11:11.380Z,1966.00
2023-03-06T07:12:11.377Z,1990.00
2023-03-06T07:13:11.426Z,1995.00
2023-03-06T07:14:11.505Z,2006.00
2023-03-06T07:15:11.477Z,2037.00
2023-03-06T07:16:12.489Z,2045.00
2023-03-06T07:17:11.823Z,2077.00
2023-03-06T07:18:11.583Z,2099.00
2023-03-06T07:19:11.569Z,2091.00
2023-03-06T07:20:11.598Z,2119.00
2023-03-06T07:21:11.649Z,2141.00
2023-03-06T07:22:11.668Z,2147.00
2023-03-06T07:23:11.672Z,2161.00
2023-03-06T07:24:11.676Z,2174.00
2023-03-06T07:25:11.670Z,2186.00
2023-03-06T07:26:11.737Z,2194.00
2023-03-06T07:27:11.742Z,2225.00
2023-03-06T07:28:11.756Z,2218.00
2023-03-06T07:29:11.780Z,2244.00
2023-03-06T07:30:11.775Z,2258.00
2023-03-06T07:31:11.810Z,2262.00
2023-03-06T07:32:11.810Z,2284.00
2023-03-06T07:33:11.796Z,2297.00
2023-03-06T07:34:11.801Z,2302.00
2023-03-06T07:35:19.687Z,2303.00
2023-03-06T07:36:13.925Z,2304.00
2023-03-06T07:37:11.865Z,2312.00
2023-03-06T07:38:11.734Z,2340.00
2023-03-06T07:39:11.673Z,2350.00
2023-03-06T07:40:11.745Z,2365.00
2023-03-06T07:41:11.638Z,2368.00
2023-03-06T07:42:11.592Z,2336.00
2023-03-06T07:43:19.029Z,2346.00
2023-03-06T07:44:12.600Z,2347.00
2023-03-06T07:45:11.551Z,2356.00
2023-03-06T07:46:11.554Z,2356.00
2023-03-06T07:47:11.557Z,2384.00
2023-03-06T07:48:11.454Z,2412.00
2023-03-06T07:49:11.403Z,2413.00
2023-03-06T07:50:11.373Z,2425.00
2023-03-06T07:51:11.344Z,2428.00
2023-03-06T07:52:11.353Z,2440.00
2023-03-06T07:53:11.655Z,2448.00
2023-03-06T07:54:11.286Z,2461.00
2023-03-06T07:55:11.240Z,2503.00
2023-03-06T07:56:11.194Z,2469.00
2023-03-06T07:57:11.398Z,2407.00
2023-03-06T07:58:11.197Z,2386.00
2023-03-06T07:59:11.230Z,2368.00
2023-03-06T08:00:11.179Z,2346.00
2023-03-06T08:01:11.232Z,2320.00
2023-03-06T08:02:11.229Z,2321.00
2023-03-06T08:03:11.258Z,2309.00
2023-03-06T08:04:11.254Z,2313.00
2023-03-06T08:05:11.292Z,2278.00
2023-03-06T08:06:11.296Z,2260.00
2023-03-06T08:07:11.384Z,2235.00
2023-03-06T08:08:11.370Z,2221.00
2023-03-06T08:09:11.331Z,2213.00
2023-03-06T08:10:11.324Z,2179.00
2023-03-06T08:11:11.409Z,2197.00
2023-03-06T08:12:11.356Z,2167.00
2023-03-06T08:13:11.414Z,2156.00
2023-03-06T08:14:11.429Z,2142.00
2023-03-06T08:15:11.524Z,2138.00
2023-03-06T08:16:11.495Z,2122.00
2023-03-06T08:17:11.890Z,2118.00
2023-03-06T08:18:11.512Z,2098.00
2023-03-06T08:19:11.551Z,2084.00
2023-03-06T08:20:11.556Z,2079.00
2023-03-06T08:21:11.551Z,2060.00
2023-03-06T08:22:11.600Z,2053.00
2023-03-06T08:23:11.584Z,2055.00
2023-03-06T08:24:11.620Z,2032.00
2023-03-06T08:25:11.646Z,2028.00
2023-03-06T08:26:11.678Z,2049.00
2023-03-06T08:27:11.666Z,2036.00
2023-03-06T08:28:11.664Z,2024.00
2023-03-06T08:29:11.714Z,1991.00
2023-03-06T08:30:11.742Z,1995.00
2023-03-06T08:31:11.763Z,1987.00
2023-03-06T08:32:11.984Z,1990.00
2023-03-06T08:33:11.889Z,1886.00
2023-03-06T08:34:12.165Z,1246.00
2023-03-06T08:35:11.864Z,969.00
2023-03-06T08:36:11.906Z,861.00
2023-03-06T08:37:12.657Z,988.00
2023-03-06T08:38:12.024Z,1157.00
2023-03-06T08:39:11.986Z,1215.00
2023-03-06T08:40:12.012Z,1257.00
2023-03-06T08:41:12.071Z,1310.00
2023-03-06T08:42:12.085Z,1498.00
2023-03-06T08:43:14.117Z,1525.00
2023-03-06T08:44:12.203Z,1703.00
2023-03-06T08:45:12.179Z,1837.00
2023-03-06T08:46:12.234Z,1899.00
2023-03-06T08:47:12.276Z,1960.00
2023-03-06T08:48:12.405Z,2015.00
2023-03-06T08:49:12.306Z,2063.00
2023-03-06T08:50:12.293Z,2104.00
2023-03-06T08:51:12.405Z,2136.00
2023-03-06T08:52:12.411Z,2157.00
2023-03-06T08:53:12.901Z,2169.00
2023-03-06T08:54:12.464Z,2161.00
2023-03-06T08:56:12.518Z,2197.00
2023-03-06T08:57:12.517Z,2219.00
2023-03-06T08:58:12.464Z,2215.00
2023-03-06T08:59:12.533Z,2231.00
2023-03-06T09:00:12.508Z,2247.00
2023-03-06T09:01:12.521Z,2270.00
2023-03-06T09:02:12.487Z,2275.00
2023-03-06T09:03:12.884Z,2297.00
2023-03-06T09:04:12.565Z,2319.00
2023-03-06T09:41:13.036Z,1691.00
2023-03-06T09:42:12.952Z,1723.00
2023-03-06T09:43:12.997Z,1757.00
2023-03-06T09:44:13.040Z,1770.00
2023-03-06T09:45:13.105Z,1773.00
2023-03-06T09:46:13.205Z,1761.00
2023-03-06T09:47:13.227Z,1775.00
2023-03-06T09:48:13.236Z,1738.00
2023-03-06T09:49:13.299Z,1719.00
2023-03-06T09:50:13.344Z,1731.00
2023-03-06T09:51:13.367Z,1725.00
2023-03-06T09:52:13.367Z,1733.00
2023-03-06T09:53:13.377Z,1717.00
2023-03-06T09:54:13.431Z,1732.00
2023-03-06T09:55:13.450Z,1760.00
2023-03-06T09:56:13.419Z,1796.00
2023-03-06T09:57:13.440Z,1777.00
2023-03-06T09:58:13.458Z,1759.00
2023-03-06T09:59:13.493Z,1786.00
2023-03-06T10:00:13.494Z,1755.00
2023-03-06T10:01:13.528Z,1790.00
2023-03-06T10:02:13.670Z,1820.00
2023-03-06T10:03:13.658Z,1810.00
2023-03-06T10:04:13.594Z,1807.00
2023-03-06T10:05:13.661Z,1865.00
2023-03-06T10:06:13.709Z,1868.00
2023-03-06T10:07:13.598Z,1881.00
2023-03-06T10:08:13.934Z,1901.00
2023-03-06T10:09:13.574Z,1946.00
2023-03-06T10:10:13.623Z,1939.00
2023-03-06T10:11:13.633Z,1961.00
2023-03-06T10:12:13.577Z,1976.00
2023-03-06T10:13:13.601Z,1989.00
2023-03-06T10:14:13.607Z,2004.00
2023-03-06T10:15:13.606Z,2030.00
2023-03-06T10:16:13.642Z,2076.00
2023-03-06T10:17:13.600Z,2084.00
2023-03-06T10:18:13.622Z,2091.00
2023-03-06T10:19:13.615Z,2097.00
2023-03-06T10:20:13.605Z,2114.00
2023-03-06T10:21:19.231Z,2129.00
2023-03-06T10:22:14.921Z,2130.00
2023-03-06T10:23:14.029Z,2135.00
2023-03-06T10:24:13.480Z,2143.00
2023-03-06T10:25:13.449Z,2151.00
2023-03-06T10:26:13.495Z,2168.00
2023-03-06T10:27:13.501Z,2171.00
2023-03-06T10:28:13.355Z,2185.00
2023-03-06T10:29:13.339Z,2159.00
2023-03-06T10:30:13.316Z,2173.00
2023-03-06T10:31:13.296Z,2170.00
2023-03-06T10:32:13.970Z,2181.00
2023-03-06T10:33:13.194Z,2184.00
2023-03-06T10:35:13.147Z,2200.00
2023-03-06T11:43:12.277Z,2477.00
2023-03-06T11:46:12.195Z,2450.00
2023-03-06T11:47:12.089Z,2450.00
2023-03-06T11:48:12.089Z,2432.00
2023-03-06T11:50:11.968Z,2378.00
2023-03-06T11:51:11.932Z,2389.00
2023-03-06T11:52:11.881Z,2396.00
2023-03-06T11:53:11.897Z,2347.00
2023-03-06T11:54:11.818Z,2308.00
2023-03-06T11:56:11.740Z,2307.00
2023-03-06T11:57:11.714Z,2264.00
2023-03-06T11:58:11.653Z,2221.00
2023-03-06T11:59:11.642Z,2208.00
2023-03-06T12:01:11.575Z,2150.00
2023-03-06T12:02:11.667Z,2163.00
2023-03-06T12:03:11.478Z,2157.00
2023-03-06T12:04:11.455Z,2100.00
2023-03-06T12:05:11.499Z,2061.00
2023-03-06T12:06:11.393Z,2070.00
2023-03-06T12:07:11.348Z,2061.00
2023-03-06T12:08:11.347Z,2015.00
2023-03-06T12:09:11.338Z,2025.00
2023-03-06T12:10:11.247Z,1959.00
2023-03-06T12:11:11.239Z,1952.00
2023-03-06T12:12:11.175Z,1958.00
2023-03-06T12:13:11.127Z,1921.00
2023-03-06T12:14:11.111Z,1888.00
2023-03-06T12:16:11.079Z,1879.00
2023-03-06T12:17:10.995Z,1867.00
2023-03-06T12:18:11.957Z,1867.00
2023-03-06T12:19:10.898Z,1867.00
2023-03-06T12:21:10.829Z,1855.00
2023-03-06T12:22:10.790Z,1863.00
2023-03-06T12:31:10.494Z,1720.00
2023-03-06T13:28:10.200Z,2517.00
2023-03-06T13:32:10.241Z,2497.00
2023-03-06T13:49:10.248Z,2375.00
2023-03-06T14:06:10.312Z,2035.00
2023-03-06T14:09:10.336Z,1982.00
2023-03-06T14:10:10.468Z,1963.00
2023-03-06T14:11:10.354Z,1935.00
2023-03-06T14:12:10.501Z,1907.00
2023-03-06T14:13:10.366Z,1900.00
2023-03-06T14:14:10.340Z,1905.00
2023-03-06T14:15:10.402Z,1848.00
2023-03-06T14:16:10.475Z,1811.00
2023-03-06T14:17:10.385Z,1835.00
2023-03-06T14:18:10.413Z,1755.00
2023-03-06T14:19:10.396Z,1684.00
2023-03-06T14:20:10.537Z,1708.00
2023-03-06T14:21:10.457Z,1379.00
2023-03-06T14:22:10.598Z,1266.00
2023-03-06T14:23:10.515Z,1258.00
2023-03-06T14:24:10.559Z,1333.00
2023-03-06T14:25:10.520Z,1385.00
2023-03-06T14:26:10.547Z,1440.00
2023-03-06T14:27:10.554Z,1406.00
2023-03-06T14:28:14.324Z,1409.00
2023-03-06T14:29:10.541Z,1482.00
2023-03-06T14:30:10.570Z,1556.00
2023-03-06T14:31:10.510Z,1555.00
2023-03-06T14:32:10.542Z,1482.00
2023-03-06T14:33:10.437Z,1483.00
2023-03-06T14:34:10.409Z,1517.00
2023-03-06T14:35:10.376Z,1249.00
2023-03-06T14:36:10.334Z,1003.00
2023-03-06T14:37:10.287Z,860.00
2023-03-06T14:38:10.259Z,715.00
2023-03-06T14:39:10.231Z,632.00
2023-03-06T14:40:10.208Z,872.00
2023-03-06T14:41:11.730Z,1101.00
2023-03-06T14:42:10.443Z,1269.00
2023-03-06T14:43:10.431Z,1361.00
2023-03-06T14:44:10.482Z,1382.00
2023-03-06T14:45:10.480Z,1388.00
2023-03-06T14:46:10.512Z,1405.00
2023-03-06T14:47:10.514Z,1428.00
2023-03-06T14:48:10.543Z,1428.00
2023-03-06T14:49:10.513Z,1510.00
2023-03-06T14:50:10.522Z,1593.00
2023-03-06T14:51:10.529Z,1622.00
2023-03-06T14:52:10.506Z,1672.00
2023-03-06T14:53:10.539Z,1674.00
2023-03-06T14:54:10.546Z,1678.00
2023-03-06T14:55:10.510Z,1724.00
2023-03-06T14:56:10.489Z,1738.00
2023-03-06T14:57:10.463Z,1764.00
2023-03-06T14:58:10.467Z,1818.00
2023-03-06T14:59:10.440Z,1852.00
2023-03-06T15:00:10.465Z,1885.00
2023-03-06T15:01:10.450Z,1934.00
2023-03-06T15:02:10.421Z,1938.00
2023-03-06T15:03:10.441Z,1964.00
2023-03-06T15:04:10.424Z,1992.00
2023-03-06T15:05:10.389Z,2063.00
2023-03-06T15:06:10.394Z,2096.00
2023-03-06T15:07:10.442Z,2132.00
2023-03-06T15:08:10.373Z,2164.00
2023-03-06T15:09:10.331Z,2203.00
2023-03-06T15:10:10.435Z,2207.00
2023-03-06T15:11:10.350Z,2249.00
2023-03-06T15:12:10.327Z,2282.00
2023-03-06T15:13:10.337Z,2293.00
2023-03-06T15:14:10.293Z,1968.00
2023-03-06T15:15:10.540Z,614.00
2023-03-06T15:16:10.404Z,461.00
2023-03-06T15:17:10.393Z,486.00
2023-03-06T15:18:10.419Z,432.00
2023-03-06T15:19:10.403Z,400.00
2023-03-06T15:20:10.430Z,400.00
2023-03-06T15:21:10.461Z,400.00
2023-03-06T15:22:10.483Z,418.00
2023-03-06T15:23:10.505Z,521.00
2023-03-06T15:24:10.544Z,606.00
2023-03-06T15:25:10.555Z,819.00
2023-03-06T15:26:10.644Z,1247.00
2023-03-06T15:27:10.601Z,1518.00
2023-03-06T15:28:10.624Z,1713.00
2023-03-06T15:29:11.022Z,1776.00
2023-03-06T15:30:11.543Z,1849.00
2023-03-06T15:31:10.745Z,1922.00
2023-03-06T15:32:10.705Z,1965.00
2023-03-06T15:33:10.773Z,2064.00
2023-03-06T15:34:10.663Z,2109.00
2023-03-06T15:35:10.670Z,2169.00
2023-03-06T15:36:10.724Z,2208.00
2023-03-06T15:37:11.484Z,2273.00
2023-03-06T15:38:10.750Z,2309.00
2023-03-06T15:39:10.790Z,2358.00